| Pilot: | GLD1760 Luciano A. | Aircraft: | Piper | Distance: | 108NM |
| From: | SSBN | To: | SSTE | Duration: | 1.27 |
| Validation: | Valid | Tipo: | Charter | Tail Number: | PT-GLD |
| ZFW: | 1530 | Block Fuel/Init FOB | 90flight_details.php/63 | Flight Fuel | 90 |
| Passengers: | 0 | Cargo: | 10 | Alternate: | SBPA |
| Departure Time: | 1836 | Cruise Speed: | 112 | Flight Level: | VFR |
| Flight Type: | IFR | Aircraft Type: | P28A | Weight Unit: | Kg |
| Date: | 29/04/2026 | Comments: | GOLD ACARS | Network: | VATSIM |
| Crash: | No | Validator Comments: | Rating | 127.281 |
| ROUTE | DCT 3007S05107W DCT 3006S05056W 3006S05044W 2952S05047W 2953S05026W DCT |
| REMARKS | PER/A OPR/GOLD VIRTUAL AIRLINES PER/A RMK/FROM SSBN/PIC GLD1760/REA SUL LESTE FREEWAY/EM TREINAMENTO VFR/ RMK/VATCAREER |
| Crash | OK | Beacon Lights off with engine on | OK | Speed above 250KIAS below 10.000ft | OK |
| Landing Lights OFF below 10.000ft | OK | Landing Lights ON above 10.000ft | OK | Stall | Fault |
| Overspeed | OK | Pause | OK | Refuel | OK |
| Slew | OK | Taxi Lights OFF during taxi | OK | Land Lights OFF during take off | OK |
| Landing Lights OFF during landing | OK | Landed in not planned airfield | OK | Taxi speed above 25 kt | OK |
| Incorrect QNH during take off | OK | Incorrect QNH during landing | OK |
| Wind: | 269º/1 kt | Heading: | 219 |
| VS: | -111 ft/min | IAS: | 68 kt |
| Gforce: | 1.0576 G | Bank: | 0.05 |
| Pitch | -0.11 | Flaps | 66 |
| Nav Lights | ON | Landing Lights | ON |
| Beacon Lights | ON | Strobe Lights | ON |
| DATE | EVENT | IAS | ALTITUDE |
|---|---|---|---|
| 2026-04-29 18:36:48 | GOLD ACARS VERSION 3.3.7.0 | 0 | 0 |
| 2026-04-29 18:36:48 | BOARDING | 0 | 69 |
| 2026-04-29 18:38:23 | FLAP 66% | 0 | 69 |
| 2026-04-29 18:38:24 | FLAP 100% | 0 | 69 |
| 2026-04-29 18:38:28 | FLAP 0% | 0 | 69 |
| 2026-04-29 18:38:58 | NAV LIGHTS ON | 0 | 69 |
| 2026-04-29 18:39:18 | STB LIGHTS ON | 0 | 69 |
| 2026-04-29 18:39:19 | LND LIGHTS OFF | 0 | 69 |
| 2026-04-29 18:39:57 | STARTING ENGINE 1 | 0 | 69 |
| 2026-04-29 18:47:55 | TAXI TO THE RWY | 4 | 17 |
| 2026-04-29 18:49:49 | LND LIGHTS ON | 9 | 23 |
| 2026-04-29 18:50:24 | STALL | 61 | 23 |
| 2026-04-29 18:50:24 | CLIMBING | 61 | 27 |
| 2026-04-29 18:50:24 | RECOVER FROM STALL | 61 | 27 |
| 2026-04-29 18:50:27 | CRUISE | 65 | 54 |
| 2026-04-29 18:50:29 | LANDING | 70 | 51 |
| 2026-04-29 18:50:32 | CLIMBING | 76 | 54 |
| 2026-04-29 18:50:40 | AP ENGAGED | 80 | 165 |
| 2026-04-29 18:51:21 | AP DISENGAGED | 86 | 762 |
| 2026-04-29 18:51:41 | AP ENGAGED | 83 | 1066 |
| 2026-04-29 18:52:33 | CRUISE | 66 | 1987 |
| 2026-04-29 18:52:54 | AP DISENGAGED | 99 | 2013 |
| 2026-04-29 18:53:00 | CLIMBING | 102 | 2031 |
| 2026-04-29 18:53:03 | CRUISE | 103 | 2054 |
| 2026-04-29 18:53:09 | CLIMBING | 103 | 2079 |
| 2026-04-29 18:53:13 | CRUISE | 102 | 2116 |
| 2026-04-29 18:53:20 | AP ENGAGED | 106 | 2096 |
| 2026-04-29 18:53:37 | AP DISENGAGED | 106 | 2137 |
| 2026-04-29 18:53:51 | AP ENGAGED | 109 | 2126 |
| 2026-04-29 18:54:20 | AP DISENGAGED | 112 | 2084 |
| 2026-04-29 18:54:50 | AP ENGAGED | 110 | 2073 |
| 2026-04-29 19:04:32 | CLIMBING | 116 | 1997 |
| 2026-04-29 19:05:40 | CRUISE | 87 | 2988 |
| 2026-04-29 19:19:42 | CLIMBING | 112 | 3003 |
| 2026-04-29 19:23:03 | CRUISE | 80 | 5489 |
| 2026-04-29 19:29:52 | NAV LIGHTS OFF | 107 | 5494 |
| 2026-04-29 19:29:53 | NAV LIGHTS ON | 107 | 5494 |
| 2026-04-29 19:31:44 | DESCEND | 108 | 5484 |
| 2026-04-29 19:45:16 | AP DISENGAGED | 82 | 1091 |
| 2026-04-29 19:45:23 | FLAP 33% | 82 | 1088 |
| 2026-04-29 19:47:16 | FLAP 66% | 81 | 572 |
| 2026-04-29 19:48:33 | LANDED AIRPORT [SBTR] | 69 | 42 |
| 2026-04-29 19:48:33 | LANDED - VS: -111 ft/min | 68 | 41 |
| 2026-04-29 19:48:42 | TAXI TO THE GATE | 27 | 38 |
| 2026-04-29 19:48:56 | FLAP 33% | 6 | 35 |
| 2026-04-29 19:48:57 | FLAP 0% | 6 | 35 |
| 2026-04-29 19:50:19 | AT THE GATE | 2 | 40 |
| 2026-04-29 19:50:30 | LND LIGHTS OFF | 0 | 40 |
| 2026-04-29 19:52:07 | STOPPING ENGINE 1 | 0 | 39 |
| 2026-04-29 19:52:23 | NAV LIGHTS OFF | 0 | 39 |
| 2026-04-29 19:52:48 | STB LIGHTS OFF | 0 | 39 |
| 2026-04-29 19:52:48 | FLIGHT FINISHED | 0 | 39 |
| DATE | IAS | GS | ALTITUDE | FUEL USED | OAT | Flight Phase |
|---|---|---|---|---|---|---|
| 2026-04-29 18:38:49 | 1 | 0 | 69 | 0 | 14 | BOARDING |
| 2026-04-29 18:39:49 | 1 | 0 | 69 | 0 | 14 | BOARDING |
| 2026-04-29 18:40:50 | 1 | 0 | 69 | 0 | 14 | BOARDING |
| 2026-04-29 18:41:50 | 1 | 0 | 17 | 0 | 14 | BOARDING |
| 2026-04-29 18:42:50 | 1 | 0 | 17 | 0 | 14 | BOARDING |
| 2026-04-29 18:43:50 | 1 | 0 | 17 | 0 | 14 | BOARDING |
| 2026-04-29 18:44:50 | 1 | 0 | 17 | 0 | 14 | BOARDING |
| 2026-04-29 18:45:51 | 1 | 0 | 17 | 0 | 14 | BOARDING |
| 2026-04-29 18:46:51 | 1 | 0 | 17 | 0 | 14 | BOARDING |
| 2026-04-29 18:47:51 | 3 | 2 | 17 | 0 | 14 | BOARDING |
| 2026-04-29 18:48:51 | 19 | 18 | 20 | 0 | 14 | BOARDING |
| 2026-04-29 18:49:51 | 11 | 12 | 23 | 0 | 14 | TAXI TO THE RWY |
| 2026-04-29 18:50:52 | 83 | 83 | 331 | 0 | 14 | TAXI TO THE RWY |
| 2026-04-29 18:51:52 | 77 | 78 | 1293 | 1 | 12 | CLIMBING |
| 2026-04-29 18:52:52 | 97 | 102 | 2014 | 2 | 11 | CLIMBING |
| 2026-04-29 18:53:52 | 110 | 115 | 2124 | 2 | 11 | CRUISE |
| 2026-04-29 18:54:52 | 111 | 116 | 2072 | 3 | 11 | CRUISE |
| 2026-04-29 18:55:53 | 111 | 117 | 1989 | 3 | 11 | CRUISE |
| 2026-04-29 18:56:53 | 117 | 123 | 2000 | 4 | 11 | CRUISE |
| 2026-04-29 18:57:53 | 118 | 123 | 2003 | 4 | 11 | CRUISE |
| 2026-04-29 18:58:53 | 118 | 123 | 2003 | 5 | 11 | CRUISE |
| 2026-04-29 18:59:54 | 118 | 123 | 2002 | 5 | 11 | CRUISE |
| 2026-04-29 19:00:54 | 118 | 123 | 2002 | 6 | 11 | CRUISE |
| 2026-04-29 19:01:54 | 118 | 123 | 2001 | 6 | 11 | CRUISE |
| 2026-04-29 19:02:54 | 118 | 123 | 2001 | 7 | 11 | CRUISE |
| 2026-04-29 19:03:54 | 118 | 123 | 2002 | 7 | 11 | CRUISE |
| 2026-04-29 19:04:55 | 99 | 102 | 2312 | 8 | 10 | CRUISE |
| 2026-04-29 19:05:55 | 102 | 106 | 3003 | 8 | 9 | CLIMBING |
| 2026-04-29 19:06:55 | 114 | 119 | 3010 | 9 | 9 | CRUISE |
| 2026-04-29 19:07:55 | 115 | 120 | 3009 | 9 | 9 | CRUISE |
| 2026-04-29 19:08:56 | 115 | 119 | 3009 | 10 | 9 | CRUISE |
| 2026-04-29 19:09:56 | 114 | 119 | 3008 | 10 | 9 | CRUISE |
| 2026-04-29 19:10:56 | 115 | 121 | 2996 | 11 | 9 | CRUISE |
| 2026-04-29 19:11:56 | 115 | 122 | 2995 | 12 | 9 | CRUISE |
| 2026-04-29 19:12:57 | 114 | 121 | 2991 | 12 | 9 | CRUISE |
| 2026-04-29 19:13:57 | 115 | 122 | 2993 | 13 | 9 | CRUISE |
| 2026-04-29 19:14:57 | 115 | 122 | 2994 | 13 | 9 | CRUISE |
| 2026-04-29 19:15:57 | 114 | 122 | 2994 | 14 | 9 | CRUISE |
| 2026-04-29 19:16:58 | 115 | 122 | 2994 | 14 | 9 | CRUISE |
| 2026-04-29 19:17:58 | 115 | 122 | 2994 | 15 | 9 | CRUISE |
| 2026-04-29 19:18:58 | 114 | 122 | 2994 | 15 | 9 | CRUISE |
| 2026-04-29 19:19:58 | 93 | 99 | 3296 | 16 | 8 | CRUISE |
| 2026-04-29 19:20:59 | 85 | 92 | 4120 | 16 | 7 | CLIMBING |
| 2026-04-29 19:21:59 | 83 | 90 | 4774 | 17 | 7 | CLIMBING |
| 2026-04-29 19:22:59 | 79 | 87 | 5455 | 17 | 5 | CLIMBING |
| 2026-04-29 19:23:59 | 105 | 116 | 5511 | 17 | 5 | CLIMBING |
| 2026-04-29 19:24:59 | 107 | 118 | 5509 | 18 | 4 | CRUISE |
| 2026-04-29 19:25:59 | 107 | 117 | 5508 | 18 | 5 | CRUISE |
| 2026-04-29 19:27:00 | 108 | 119 | 5495 | 19 | 6 | CRUISE |
| 2026-04-29 19:28:00 | 107 | 118 | 5494 | 19 | 7 | CRUISE |
| 2026-04-29 19:29:00 | 107 | 117 | 5492 | 20 | 4 | CRUISE |
| 2026-04-29 19:30:00 | 107 | 118 | 5493 | 20 | 6 | CRUISE |
| 2026-04-29 19:31:01 | 107 | 117 | 5492 | 21 | 4 | CRUISE |
| 2026-04-29 19:32:01 | 115 | 126 | 5356 | 21 | 4 | CRUISE |
| 2026-04-29 19:33:01 | 128 | 138 | 4406 | 22 | 6 | DESCEND |
| 2026-04-29 19:34:01 | 124 | 132 | 3506 | 22 | 8 | DESCEND |
| 2026-04-29 19:35:02 | 114 | 121 | 3490 | 23 | 8 | DESCEND |
| 2026-04-29 19:36:02 | 113 | 121 | 3493 | 23 | 8 | DESCEND |
| 2026-04-29 19:37:02 | 113 | 121 | 3492 | 24 | 8 | DESCEND |
| 2026-04-29 19:38:02 | 115 | 122 | 3482 | 24 | 8 | DESCEND |
| 2026-04-29 19:39:03 | 103 | 108 | 2731 | 24 | 9 | DESCEND |
| 2026-04-29 19:40:03 | 92 | 95 | 1696 | 24 | 11 | DESCEND |
| 2026-04-29 19:41:03 | 82 | 84 | 1091 | 25 | 12 | DESCEND |
| 2026-04-29 19:42:03 | 86 | 89 | 1095 | 25 | 12 | DESCEND |
| 2026-04-29 19:43:04 | 85 | 87 | 1097 | 25 | 12 | DESCEND |
| 2026-04-29 19:44:04 | 82 | 85 | 1090 | 25 | 12 | DESCEND |
| 2026-04-29 19:45:04 | 82 | 85 | 1090 | 25 | 12 | DESCEND |
| 2026-04-29 19:46:04 | 79 | 78 | 975 | 26 | 13 | DESCEND |
| 2026-04-29 19:47:04 | 82 | 82 | 686 | 26 | 13 | DESCEND |
| 2026-04-29 19:48:04 | 78 | 78 | 212 | 26 | 14 | DESCEND |
| 2026-04-29 19:49:05 | 5 | 6 | 36 | 26 | 15 | DESCEND |
| 2026-04-29 19:50:05 | 8 | 7 | 39 | 26 | 15 | TAXI TO THE GATE |
| 2026-04-29 19:51:05 | 5 | 6 | 38 | 26 | 15 | TAXI TO THE GATE |
| 2026-04-29 19:52:05 | 1 | 0 | 39 | 26 | 15 | AT THE GATE |